sensor_id;sensor_type;location;lat;lon;timestamp;P1;durP1;ratioP1;P2;durP2;ratioP2
40453;SDS011;26160;51.858;4.398;2023-04-03T00:01:41;3.67;;;1.47;;
40453;SDS011;26160;51.858;4.398;2023-04-03T00:04:07;1.43;;;1.30;;
40453;SDS011;26160;51.858;4.398;2023-04-03T00:06:34;2.83;;;1.40;;
40453;SDS011;26160;51.858;4.398;2023-04-03T00:09:00;3.53;;;1.37;;
40453;SDS011;26160;51.858;4.398;2023-04-03T00:11:26;2.30;;;1.17;;
40453;SDS011;26160;51.858;4.398;2023-04-03T00:13:52;2.33;;;1.43;;
40453;SDS011;26160;51.858;4.398;2023-04-03T00:16:18;2.57;;;1.50;;
40453;SDS011;26160;51.858;4.398;2023-04-03T00:18:45;2.83;;;1.20;;
40453;SDS011;26160;51.858;4.398;2023-04-03T00:21:12;3.73;;;1.53;;
40453;SDS011;26160;51.858;4.398;2023-04-03T00:23:39;4.80;;;1.70;;
40453;SDS011;26160;51.858;4.398;2023-04-03T00:26:05;4.57;;;1.43;;
40453;SDS011;26160;51.858;4.398;2023-04-03T00:28:31;2.50;;;1.33;;
40453;SDS011;26160;51.858;4.398;2023-04-03T00:30:57;2.47;;;1.47;;
40453;SDS011;26160;51.858;4.398;2023-04-03T00:33:24;3.83;;;1.10;;
40453;SDS011;26160;51.858;4.398;2023-04-03T00:35:50;6.70;;;1.30;;
40453;SDS011;26160;51.858;4.398;2023-04-03T00:38:16;6.33;;;1.50;;
40453;SDS011;26160;51.858;4.398;2023-04-03T00:40:44;2.90;;;1.20;;
40453;SDS011;26160;51.858;4.398;2023-04-03T00:43:12;2.63;;;1.33;;
40453;SDS011;26160;51.858;4.398;2023-04-03T00:45:45;3.03;;;1.40;;
40453;SDS011;26160;51.858;4.398;2023-04-03T00:48:20;3.70;;;1.10;;
40453;SDS011;26160;51.858;4.398;2023-04-03T00:50:55;3.35;;;1.38;;
40453;SDS011;26160;51.858;4.398;2023-04-03T00:53:23;4.27;;;1.80;;
40453;SDS011;26160;51.858;4.398;2023-04-03T00:55:53;2.93;;;1.40;;
40453;SDS011;26160;51.858;4.398;2023-04-03T00:58:21;3.70;;;1.60;;
40453;SDS011;26160;51.858;4.398;2023-04-03T01:03:37;4.27;;;1.40;;
40453;SDS011;26160;51.858;4.398;2023-04-03T01:06:03;3.53;;;1.20;;
40453;SDS011;26160;51.858;4.398;2023-04-03T01:08:30;5.27;;;1.50;;
40453;SDS011;26160;51.858;4.398;2023-04-03T01:10:56;2.47;;;1.57;;
40453;SDS011;26160;51.858;4.398;2023-04-03T01:13:27;4.50;;;1.60;;
40453;SDS011;26160;51.858;4.398;2023-04-03T01:15:55;2.73;;;1.50;;
40453;SDS011;26160;51.858;4.398;2023-04-03T01:18:24;5.23;;;1.50;;
40453;SDS011;26160;51.858;4.398;2023-04-03T01:23:25;5.07;;;1.70;;
40453;SDS011;26160;51.858;4.398;2023-04-03T01:26:06;3.30;;;1.60;;
40453;SDS011;26160;51.858;4.398;2023-04-03T01:28:35;3.80;;;1.73;;
40453;SDS011;26160;51.858;4.398;2023-04-03T01:34:01;5.87;;;1.53;;
40453;SDS011;26160;51.858;4.398;2023-04-03T01:36:29;2.63;;;1.60;;
40453;SDS011;26160;51.858;4.398;2023-04-03T01:38:57;3.33;;;1.67;;
40453;SDS011;26160;51.858;4.398;2023-04-03T01:41:25;2.50;;;1.40;;
40453;SDS011;26160;51.858;4.398;2023-04-03T01:43:52;6.77;;;1.60;;
40453;SDS011;26160;51.858;4.398;2023-04-03T01:46:18;4.57;;;1.60;;
40453;SDS011;26160;51.858;4.398;2023-04-03T01:48:45;6.60;;;2.33;;
40453;SDS011;26160;51.858;4.398;2023-04-03T01:51:12;2.67;;;1.50;;
40453;SDS011;26160;51.858;4.398;2023-04-03T01:53:38;2.73;;;1.83;;
40453;SDS011;26160;51.858;4.398;2023-04-03T01:56:04;3.17;;;1.57;;
40453;SDS011;26160;51.858;4.398;2023-04-03T01:58:31;4.93;;;1.63;;
40453;SDS011;26160;51.858;4.398;2023-04-03T02:00:57;5.07;;;1.47;;
40453;SDS011;26160;51.858;4.398;2023-04-03T02:03:23;2.43;;;1.67;;
40453;SDS011;26160;51.858;4.398;2023-04-03T02:05:49;6.07;;;1.87;;
40453;SDS011;26160;51.858;4.398;2023-04-03T02:08:16;2.80;;;1.77;;
40453;SDS011;26160;51.858;4.398;2023-04-03T02:10:44;4.03;;;1.70;;
40453;SDS011;26160;51.858;4.398;2023-04-03T02:13:12;4.23;;;1.50;;
40453;SDS011;26160;51.858;4.398;2023-04-03T02:15:39;3.80;;;1.90;;
40453;SDS011;26160;51.858;4.398;2023-04-03T02:18:05;2.87;;;1.43;;
40453;SDS011;26160;51.858;4.398;2023-04-03T02:20:31;4.43;;;1.60;;
40453;SDS011;26160;51.858;4.398;2023-04-03T02:22:58;4.20;;;1.90;;
40453;SDS011;26160;51.858;4.398;2023-04-03T02:25:24;5.37;;;1.93;;
40453;SDS011;26160;51.858;4.398;2023-04-03T02:27:51;2.90;;;1.27;;
40453;SDS011;26160;51.858;4.398;2023-04-03T02:30:17;4.87;;;1.60;;
40453;SDS011;26160;51.858;4.398;2023-04-03T02:32:43;2.90;;;1.50;;
40453;SDS011;26160;51.858;4.398;2023-04-03T02:35:11;2.83;;;1.60;;
40453;SDS011;26160;51.858;4.398;2023-04-03T02:37:37;3.73;;;1.73;;
40453;SDS011;26160;51.858;4.398;2023-04-03T02:40:04;4.17;;;1.87;;
40453;SDS011;26160;51.858;4.398;2023-04-03T02:42:31;3.97;;;1.63;;
40453;SDS011;26160;51.858;4.398;2023-04-03T02:44:57;4.17;;;1.40;;
40453;SDS011;26160;51.858;4.398;2023-04-03T02:47:26;3.90;;;1.70;;
40453;SDS011;26160;51.858;4.398;2023-04-03T02:49:53;5.43;;;2.03;;
40453;SDS011;26160;51.858;4.398;2023-04-03T02:52:19;4.53;;;1.83;;
40453;SDS011;26160;51.858;4.398;2023-04-03T02:54:45;6.10;;;2.03;;
40453;SDS011;26160;51.858;4.398;2023-04-03T02:57:11;4.00;;;1.60;;
40453;SDS011;26160;51.858;4.398;2023-04-03T02:59:38;2.50;;;1.77;;
40453;SDS011;26160;51.858;4.398;2023-04-03T03:02:07;3.10;;;1.73;;
40453;SDS011;26160;51.858;4.398;2023-04-03T03:04:34;3.80;;;1.90;;
40453;SDS011;26160;51.858;4.398;2023-04-03T03:07:01;4.10;;;1.67;;
40453;SDS011;26160;51.858;4.398;2023-04-03T03:09:27;3.63;;;1.83;;
40453;SDS011;26160;51.858;4.398;2023-04-03T03:11:55;4.37;;;2.03;;
40453;SDS011;26160;51.858;4.398;2023-04-03T03:14:22;5.33;;;1.90;;
40453;SDS011;26160;51.858;4.398;2023-04-03T03:16:51;5.13;;;2.00;;
40453;SDS011;26160;51.858;4.398;2023-04-03T03:19:17;5.00;;;2.13;;
40453;SDS011;26160;51.858;4.398;2023-04-03T03:21:43;5.67;;;2.20;;
40453;SDS011;26160;51.858;4.398;2023-04-03T03:24:09;6.40;;;1.60;;
40453;SDS011;26160;51.858;4.398;2023-04-03T03:26:37;4.83;;;2.40;;
40453;SDS011;26160;51.858;4.398;2023-04-03T03:29:03;4.60;;;2.30;;
40453;SDS011;26160;51.858;4.398;2023-04-03T03:31:29;3.80;;;2.10;;
40453;SDS011;26160;51.858;4.398;2023-04-03T03:33:55;7.33;;;2.23;;
40453;SDS011;26160;51.858;4.398;2023-04-03T03:36:22;4.97;;;2.23;;
40453;SDS011;26160;51.858;4.398;2023-04-03T03:38:48;3.90;;;2.10;;
40453;SDS011;26160;51.858;4.398;2023-04-03T03:41:14;6.00;;;2.10;;
40453;SDS011;26160;51.858;4.398;2023-04-03T03:43:40;2.97;;;2.10;;
40453;SDS011;26160;51.858;4.398;2023-04-03T03:46:06;3.27;;;1.97;;
40453;SDS011;26160;51.858;4.398;2023-04-03T03:48:32;3.53;;;2.10;;
40453;SDS011;26160;51.858;4.398;2023-04-03T03:50:58;3.63;;;2.10;;
40453;SDS011;26160;51.858;4.398;2023-04-03T03:53:25;3.87;;;2.00;;
40453;SDS011;26160;51.858;4.398;2023-04-03T03:55:51;7.00;;;2.77;;
40453;SDS011;26160;51.858;4.398;2023-04-03T03:58:17;4.53;;;2.50;;
40453;SDS011;26160;51.858;4.398;2023-04-03T04:00:43;5.07;;;1.97;;
40453;SDS011;26160;51.858;4.398;2023-04-03T04:03:10;7.43;;;2.77;;
40453;SDS011;26160;51.858;4.398;2023-04-03T04:05:36;5.50;;;2.40;;
40453;SDS011;26160;51.858;4.398;2023-04-03T04:08:02;4.77;;;2.20;;
40453;SDS011;26160;51.858;4.398;2023-04-03T04:10:28;7.60;;;2.30;;
40453;SDS011;26160;51.858;4.398;2023-04-03T04:12:54;6.83;;;2.70;;
40453;SDS011;26160;51.858;4.398;2023-04-03T04:15:20;7.10;;;2.50;;
40453;SDS011;26160;51.858;4.398;2023-04-03T04:17:47;6.17;;;2.50;;
40453;SDS011;26160;51.858;4.398;2023-04-03T04:20:13;4.37;;;2.37;;
40453;SDS011;26160;51.858;4.398;2023-04-03T04:22:39;4.97;;;2.53;;
40453;SDS011;26160;51.858;4.398;2023-04-03T04:25:06;4.20;;;2.13;;
40453;SDS011;26160;51.858;4.398;2023-04-03T04:27:32;6.07;;;2.70;;
40453;SDS011;26160;51.858;4.398;2023-04-03T04:29:58;7.43;;;2.73;;
40453;SDS011;26160;51.858;4.398;2023-04-03T04:32:24;7.47;;;2.90;;
40453;SDS011;26160;51.858;4.398;2023-04-03T04:34:50;5.87;;;2.77;;
40453;SDS011;26160;51.858;4.398;2023-04-03T04:37:17;5.40;;;2.87;;
40453;SDS011;26160;51.858;4.398;2023-04-03T04:39:43;6.17;;;3.10;;
40453;SDS011;26160;51.858;4.398;2023-04-03T04:42:09;4.37;;;2.73;;
40453;SDS011;26160;51.858;4.398;2023-04-03T04:44:38;4.33;;;2.60;;
40453;SDS011;26160;51.858;4.398;2023-04-03T04:47:04;4.40;;;2.60;;
40453;SDS011;26160;51.858;4.398;2023-04-03T04:49:30;7.47;;;3.27;;
40453;SDS011;26160;51.858;4.398;2023-04-03T04:51:57;7.80;;;2.73;;
40453;SDS011;26160;51.858;4.398;2023-04-03T04:54:23;6.93;;;2.80;;
40453;SDS011;26160;51.858;4.398;2023-04-03T04:56:49;8.80;;;3.23;;
40453;SDS011;26160;51.858;4.398;2023-04-03T04:59:15;4.83;;;2.83;;
40453;SDS011;26160;51.858;4.398;2023-04-03T05:01:42;7.07;;;3.50;;
40453;SDS011;26160;51.858;4.398;2023-04-03T05:04:08;5.70;;;2.83;;
40453;SDS011;26160;51.858;4.398;2023-04-03T05:06:34;6.17;;;2.97;;
40453;SDS011;26160;51.858;4.398;2023-04-03T05:09:01;9.50;;;3.30;;
40453;SDS011;26160;51.858;4.398;2023-04-03T05:11:27;7.83;;;3.13;;
40453;SDS011;26160;51.858;4.398;2023-04-03T05:13:53;6.77;;;2.90;;
40453;SDS011;26160;51.858;4.398;2023-04-03T05:16:19;9.80;;;3.43;;
40453;SDS011;26160;51.858;4.398;2023-04-03T05:18:45;8.87;;;3.43;;
40453;SDS011;26160;51.858;4.398;2023-04-03T05:21:12;7.43;;;3.13;;
40453;SDS011;26160;51.858;4.398;2023-04-03T05:23:38;6.83;;;3.10;;
40453;SDS011;26160;51.858;4.398;2023-04-03T05:26:04;6.53;;;3.13;;
40453;SDS011;26160;51.858;4.398;2023-04-03T05:28:30;6.77;;;2.97;;
40453;SDS011;26160;51.858;4.398;2023-04-03T05:30:57;7.03;;;3.23;;
40453;SDS011;26160;51.858;4.398;2023-04-03T05:33:24;10.87;;;3.70;;
40453;SDS011;26160;51.858;4.398;2023-04-03T05:35:52;7.40;;;2.83;;
40453;SDS011;26160;51.858;4.398;2023-04-03T05:38:18;6.40;;;3.10;;
40453;SDS011;26160;51.858;4.398;2023-04-03T05:40:45;7.87;;;4.13;;
40453;SDS011;26160;51.858;4.398;2023-04-03T05:43:11;6.57;;;2.80;;
40453;SDS011;26160;51.858;4.398;2023-04-03T05:45:38;5.33;;;3.40;;
40453;SDS011;26160;51.858;4.398;2023-04-03T05:48:04;8.07;;;3.37;;
40453;SDS011;26160;51.858;4.398;2023-04-03T05:50:30;6.50;;;3.47;;
40453;SDS011;26160;51.858;4.398;2023-04-03T05:52:57;7.13;;;3.03;;
40453;SDS011;26160;51.858;4.398;2023-04-03T05:55:24;5.97;;;3.17;;
40453;SDS011;26160;51.858;4.398;2023-04-03T05:57:50;8.57;;;3.30;;
40453;SDS011;26160;51.858;4.398;2023-04-03T06:00:16;7.27;;;3.20;;
40453;SDS011;26160;51.858;4.398;2023-04-03T06:02:43;7.30;;;3.53;;
40453;SDS011;26160;51.858;4.398;2023-04-03T06:05:09;6.43;;;3.27;;
40453;SDS011;26160;51.858;4.398;2023-04-03T06:07:37;9.70;;;3.30;;
40453;SDS011;26160;51.858;4.398;2023-04-03T06:10:03;7.67;;;3.57;;
40453;SDS011;26160;51.858;4.398;2023-04-03T06:12:30;7.13;;;3.70;;
40453;SDS011;26160;51.858;4.398;2023-04-03T06:14:56;8.07;;;3.53;;
40453;SDS011;26160;51.858;4.398;2023-04-03T06:17:23;5.27;;;2.93;;
40453;SDS011;26160;51.858;4.398;2023-04-03T06:19:49;8.23;;;3.43;;
40453;SDS011;26160;51.858;4.398;2023-04-03T06:22:15;7.80;;;3.43;;
40453;SDS011;26160;51.858;4.398;2023-04-03T06:24:42;6.70;;;3.37;;
40453;SDS011;26160;51.858;4.398;2023-04-03T06:27:09;5.60;;;3.00;;
40453;SDS011;26160;51.858;4.398;2023-04-03T06:29:36;6.80;;;2.97;;
40453;SDS011;26160;51.858;4.398;2023-04-03T06:32:02;5.73;;;3.30;;
40453;SDS011;26160;51.858;4.398;2023-04-03T06:34:29;8.27;;;2.63;;
40453;SDS011;26160;51.858;4.398;2023-04-03T06:36:55;5.13;;;2.87;;
40453;SDS011;26160;51.858;4.398;2023-04-03T06:39:21;7.07;;;3.00;;
40453;SDS011;26160;51.858;4.398;2023-04-03T06:41:50;6.60;;;2.77;;
40453;SDS011;26160;51.858;4.398;2023-04-03T06:44:17;8.90;;;3.03;;
40453;SDS011;26160;51.858;4.398;2023-04-03T06:46:43;7.00;;;2.83;;
40453;SDS011;26160;51.858;4.398;2023-04-03T06:49:12;7.90;;;2.70;;
40453;SDS011;26160;51.858;4.398;2023-04-03T06:51:38;8.53;;;2.70;;
40453;SDS011;26160;51.858;4.398;2023-04-03T06:54:04;6.57;;;3.10;;
40453;SDS011;26160;51.858;4.398;2023-04-03T06:56:32;9.90;;;2.53;;
40453;SDS011;26160;51.858;4.398;2023-04-03T06:58:58;6.50;;;2.73;;
40453;SDS011;26160;51.858;4.398;2023-04-03T07:01:26;6.00;;;2.63;;
40453;SDS011;26160;51.858;4.398;2023-04-03T07:03:53;7.23;;;2.03;;
40453;SDS011;26160;51.858;4.398;2023-04-03T07:06:20;5.67;;;2.70;;
40453;SDS011;26160;51.858;4.398;2023-04-03T07:08:46;9.33;;;2.57;;
40453;SDS011;26160;51.858;4.398;2023-04-03T07:11:16;8.40;;;2.43;;
40453;SDS011;26160;51.858;4.398;2023-04-03T07:13:42;4.80;;;2.40;;
40453;SDS011;26160;51.858;4.398;2023-04-03T07:16:08;10.00;;;3.27;;
40453;SDS011;26160;51.858;4.398;2023-04-03T07:18:35;4.40;;;2.50;;
40453;SDS011;26160;51.858;4.398;2023-04-03T07:21:01;8.87;;;2.00;;
40453;SDS011;26160;51.858;4.398;2023-04-03T07:23:28;5.93;;;2.00;;
40453;SDS011;26160;51.858;4.398;2023-04-03T07:25:54;5.60;;;2.00;;
40453;SDS011;26160;51.858;4.398;2023-04-03T07:28:20;5.53;;;2.53;;
40453;SDS011;26160;51.858;4.398;2023-04-03T07:30:49;4.17;;;2.20;;
40453;SDS011;26160;51.858;4.398;2023-04-03T07:33:20;5.67;;;2.33;;
40453;SDS011;26160;51.858;4.398;2023-04-03T07:35:47;5.37;;;2.40;;
40453;SDS011;26160;51.858;4.398;2023-04-03T07:38:13;7.83;;;2.20;;
40453;SDS011;26160;51.858;4.398;2023-04-03T07:40:40;5.80;;;2.67;;
40453;SDS011;26160;51.858;4.398;2023-04-03T07:43:15;7.03;;;2.40;;
40453;SDS011;26160;51.858;4.398;2023-04-03T07:45:42;5.33;;;2.10;;
40453;SDS011;26160;51.858;4.398;2023-04-03T07:48:11;6.93;;;2.20;;
40453;SDS011;26160;51.858;4.398;2023-04-03T07:50:41;5.87;;;2.07;;
40453;SDS011;26160;51.858;4.398;2023-04-03T07:53:08;5.80;;;1.97;;
40453;SDS011;26160;51.858;4.398;2023-04-03T07:55:34;5.87;;;2.47;;
40453;SDS011;26160;51.858;4.398;2023-04-03T07:58:11;6.63;;;2.47;;
40453;SDS011;26160;51.858;4.398;2023-04-03T08:00:40;6.85;;;2.00;;
40453;SDS011;26160;51.858;4.398;2023-04-03T08:03:07;5.83;;;1.93;;
40453;SDS011;26160;51.858;4.398;2023-04-03T08:05:38;5.87;;;2.50;;
40453;SDS011;26160;51.858;4.398;2023-04-03T08:08:06;7.03;;;1.80;;
40453;SDS011;26160;51.858;4.398;2023-04-03T08:10:32;7.47;;;1.80;;
40453;SDS011;26160;51.858;4.398;2023-04-03T08:12:59;4.90;;;2.27;;
40453;SDS011;26160;51.858;4.398;2023-04-03T08:15:26;8.00;;;2.17;;
40453;SDS011;26160;51.858;4.398;2023-04-03T08:17:52;4.67;;;1.80;;
40453;SDS011;26160;51.858;4.398;2023-04-03T08:20:19;9.47;;;2.43;;
40453;SDS011;26160;51.858;4.398;2023-04-03T08:22:45;6.50;;;1.97;;
40453;SDS011;26160;51.858;4.398;2023-04-03T08:25:11;7.43;;;2.47;;
40453;SDS011;26160;51.858;4.398;2023-04-03T08:27:38;4.23;;;1.67;;
40453;SDS011;26160;51.858;4.398;2023-04-03T08:30:04;6.97;;;2.07;;
40453;SDS011;26160;51.858;4.398;2023-04-03T08:32:33;9.00;;;2.60;;
40453;SDS011;26160;51.858;4.398;2023-04-03T08:35:00;4.60;;;1.70;;
40453;SDS011;26160;51.858;4.398;2023-04-03T08:37:26;4.50;;;1.70;;
40453;SDS011;26160;51.858;4.398;2023-04-03T08:39:52;3.37;;;1.50;;
40453;SDS011;26160;51.858;4.398;2023-04-03T08:42:24;4.77;;;1.60;;
40453;SDS011;26160;51.858;4.398;2023-04-03T08:48:17;6.20;;;1.97;;
40453;SDS011;26160;51.858;4.398;2023-04-03T08:50:47;7.17;;;1.90;;
40453;SDS011;26160;51.858;4.398;2023-04-03T08:53:21;8.30;;;2.27;;
40453;SDS011;26160;51.858;4.398;2023-04-03T08:55:52;4.07;;;1.57;;
40453;SDS011;26160;51.858;4.398;2023-04-03T08:58:20;5.90;;;2.07;;
40453;SDS011;26160;51.858;4.398;2023-04-03T09:03:34;5.73;;;2.10;;
40453;SDS011;26160;51.858;4.398;2023-04-03T09:06:05;3.47;;;1.33;;
40453;SDS011;26160;51.858;4.398;2023-04-03T09:11:26;6.90;;;1.92;;
40453;SDS011;26160;51.858;4.398;2023-04-03T09:14:07;5.00;;;1.50;;
40453;SDS011;26160;51.858;4.398;2023-04-03T09:17:00;6.20;;;1.63;;
40453;SDS011;26160;51.858;4.398;2023-04-03T09:19:51;5.03;;;1.63;;
40453;SDS011;26160;51.858;4.398;2023-04-03T09:22:24;5.63;;;1.63;;
40453;SDS011;26160;51.858;4.398;2023-04-03T09:25:00;4.90;;;1.57;;
40453;SDS011;26160;51.858;4.398;2023-04-03T09:27:34;4.50;;;1.30;;
40453;SDS011;26160;51.858;4.398;2023-04-03T09:30:00;2.17;;;1.13;;
40453;SDS011;26160;51.858;4.398;2023-04-03T09:32:30;3.73;;;1.20;;
40453;SDS011;26160;51.858;4.398;2023-04-03T09:35:02;1.83;;;1.03;;
40453;SDS011;26160;51.858;4.398;2023-04-03T09:37:44;3.87;;;1.13;;
40453;SDS011;26160;51.858;4.398;2023-04-03T09:42:57;2.73;;;1.10;;
40453;SDS011;26160;51.858;4.398;2023-04-03T09:45:27;3.23;;;1.00;;
40453;SDS011;26160;51.858;4.398;2023-04-03T09:50:30;3.35;;;1.15;;
40453;SDS011;26160;51.858;4.398;2023-04-03T09:52:56;3.47;;;0.87;;
40453;SDS011;26160;51.858;4.398;2023-04-03T09:55:26;2.90;;;0.90;;
40453;SDS011;26160;51.858;4.398;2023-04-03T09:57:56;1.05;;;0.65;;
40453;SDS011;26160;51.858;4.398;2023-04-03T10:00:31;2.00;;;0.70;;
40453;SDS011;26160;51.858;4.398;2023-04-03T10:03:00;3.13;;;1.33;;
40453;SDS011;26160;51.858;4.398;2023-04-03T10:05:32;1.83;;;0.90;;
40453;SDS011;26160;51.858;4.398;2023-04-03T10:10:40;4.03;;;1.17;;
40453;SDS011;26160;51.858;4.398;2023-04-03T10:15:45;3.43;;;1.10;;
40453;SDS011;26160;51.858;4.398;2023-04-03T10:21:13;2.13;;;1.03;;
40453;SDS011;26160;51.858;4.398;2023-04-03T10:23:46;3.27;;;0.73;;
40453;SDS011;26160;51.858;4.398;2023-04-03T10:34:42;2.23;;;0.80;;
40453;SDS011;26160;51.858;4.398;2023-04-03T10:37:49;2.37;;;0.77;;
40453;SDS011;26160;51.858;4.398;2023-04-03T10:43:36;2.00;;;0.70;;
40453;SDS011;26160;51.858;4.398;2023-04-03T10:46:02;1.00;;;0.40;;
40453;SDS011;26160;51.858;4.398;2023-04-03T10:48:43;6.23;;;0.60;;
40453;SDS011;26160;51.858;4.398;2023-04-03T10:51:39;1.07;;;0.50;;
40453;SDS011;26160;51.858;4.398;2023-04-03T10:56:53;2.90;;;0.67;;
40453;SDS011;26160;51.858;4.398;2023-04-03T10:59:35;1.20;;;0.70;;
40453;SDS011;26160;51.858;4.398;2023-04-03T11:02:06;1.27;;;0.40;;
40453;SDS011;26160;51.858;4.398;2023-04-03T11:04:40;0.70;;;0.25;;
40453;SDS011;26160;51.858;4.398;2023-04-03T11:07:12;4.15;;;0.45;;
40453;SDS011;26160;51.858;4.398;2023-04-03T11:09:43;3.53;;;0.40;;
40453;SDS011;26160;51.858;4.398;2023-04-03T11:12:17;1.90;;;0.20;;
40453;SDS011;26160;51.858;4.398;2023-04-03T11:15:13;3.17;;;0.30;;
40453;SDS011;26160;51.858;4.398;2023-04-03T11:17:48;0.75;;;0.22;;
40453;SDS011;26160;51.858;4.398;2023-04-03T11:20:26;1.42;;;0.55;;
40453;SDS011;26160;51.858;4.398;2023-04-03T11:25:36;2.77;;;0.40;;
40453;SDS011;26160;51.858;4.398;2023-04-03T11:28:11;0.70;;;0.60;;
40453;SDS011;26160;51.858;4.398;2023-04-03T11:36:00;12.03;;;0.90;;
40453;SDS011;26160;51.858;4.398;2023-04-03T11:38:36;1.95;;;0.57;;
40453;SDS011;26160;51.858;4.398;2023-04-03T11:41:08;0.77;;;0.45;;
40453;SDS011;26160;51.858;4.398;2023-04-03T11:43:42;0.63;;;0.32;;
40453;SDS011;26160;51.858;4.398;2023-04-03T11:46:48;4.28;;;0.60;;
40453;SDS011;26160;51.858;4.398;2023-04-03T12:18:57;1.35;;;0.52;;
40453;SDS011;26160;51.858;4.398;2023-04-03T12:26:44;0.80;;;0.40;;
40453;SDS011;26160;51.858;4.398;2023-04-03T12:29:22;1.17;;;0.52;;
40453;SDS011;26160;51.858;4.398;2023-04-03T12:43:18;1.65;;;0.50;;
40453;SDS011;26160;51.858;4.398;2023-04-03T12:46:04;1.05;;;0.50;;
40453;SDS011;26160;51.858;4.398;2023-04-03T12:48:37;2.90;;;0.80;;
40453;SDS011;26160;51.858;4.398;2023-04-03T12:54:13;0.57;;;0.40;;
40453;SDS011;26160;51.858;4.398;2023-04-03T12:56:42;0.30;;;0.30;;
40453;SDS011;26160;51.858;4.398;2023-04-03T12:59:24;2.05;;;0.68;;
40453;SDS011;26160;51.858;4.398;2023-04-03T13:01:56;1.75;;;0.50;;
40453;SDS011;26160;51.858;4.398;2023-04-03T13:04:24;0.80;;;0.40;;
40453;SDS011;26160;51.858;4.398;2023-04-03T13:06:52;1.08;;;0.60;;
40453;SDS011;26160;51.858;4.398;2023-04-03T13:09:19;2.88;;;0.60;;
40453;SDS011;26160;51.858;4.398;2023-04-03T13:11:49;1.48;;;0.50;;
40453;SDS011;26160;51.858;4.398;2023-04-03T13:14:18;3.95;;;0.50;;
40453;SDS011;26160;51.858;4.398;2023-04-03T13:16:53;1.30;;;0.50;;
40453;SDS011;26160;51.858;4.398;2023-04-03T13:19:22;1.05;;;0.50;;
40453;SDS011;26160;51.858;4.398;2023-04-03T13:22:03;5.43;;;0.70;;
40453;SDS011;26160;51.858;4.398;2023-04-03T13:24:33;37.05;;;2.58;;
40453;SDS011;26160;51.858;4.398;2023-04-03T13:27:02;3.05;;;0.88;;
40453;SDS011;26160;51.858;4.398;2023-04-03T13:29:31;3.67;;;0.80;;
40453;SDS011;26160;51.858;4.398;2023-04-03T13:31:59;1.45;;;0.52;;
40453;SDS011;26160;51.858;4.398;2023-04-03T13:34:37;1.30;;;0.60;;
40453;SDS011;26160;51.858;4.398;2023-04-03T13:37:06;1.88;;;0.70;;
40453;SDS011;26160;51.858;4.398;2023-04-03T13:39:38;1.05;;;0.68;;
40453;SDS011;26160;51.858;4.398;2023-04-03T13:42:22;3.25;;;0.82;;
40453;SDS011;26160;51.858;4.398;2023-04-03T13:45:16;7.43;;;1.20;;
40453;SDS011;26160;51.858;4.398;2023-04-03T13:47:50;1.77;;;0.85;;
40453;SDS011;26160;51.858;4.398;2023-04-03T13:50:19;2.53;;;0.70;;
40453;SDS011;26160;51.858;4.398;2023-04-03T13:55:39;3.38;;;0.75;;
40453;SDS011;26160;51.858;4.398;2023-04-03T13:58:31;1.65;;;0.85;;
40453;SDS011;26160;51.858;4.398;2023-04-03T14:01:07;2.88;;;0.80;;
40453;SDS011;26160;51.858;4.398;2023-04-03T14:03:47;1.20;;;0.65;;
40453;SDS011;26160;51.858;4.398;2023-04-03T14:06:21;1.30;;;0.65;;
40453;SDS011;26160;51.858;4.398;2023-04-03T14:08:48;2.60;;;1.10;;
40453;SDS011;26160;51.858;4.398;2023-04-03T14:11:15;2.75;;;0.95;;
40453;SDS011;26160;51.858;4.398;2023-04-03T14:13:45;2.88;;;0.90;;
40453;SDS011;26160;51.858;4.398;2023-04-03T14:16:16;2.70;;;0.95;;
40453;SDS011;26160;51.858;4.398;2023-04-03T14:18:46;2.03;;;0.88;;
40453;SDS011;26160;51.858;4.398;2023-04-03T14:21:14;3.75;;;1.00;;
40453;SDS011;26160;51.858;4.398;2023-04-03T14:23:41;1.92;;;0.90;;
40453;SDS011;26160;51.858;4.398;2023-04-03T14:26:10;4.03;;;0.95;;
40453;SDS011;26160;51.858;4.398;2023-04-03T14:28:42;4.38;;;1.00;;
40453;SDS011;26160;51.858;4.398;2023-04-03T14:31:09;1.35;;;0.80;;
40453;SDS011;26160;51.858;4.398;2023-04-03T14:33:40;2.10;;;1.02;;
40453;SDS011;26160;51.858;4.398;2023-04-03T14:36:24;2.53;;;0.77;;
40453;SDS011;26160;51.858;4.398;2023-04-03T14:38:53;1.33;;;0.95;;
40453;SDS011;26160;51.858;4.398;2023-04-03T14:41:21;3.65;;;0.90;;
40453;SDS011;26160;51.858;4.398;2023-04-03T14:43:49;3.40;;;0.80;;
40453;SDS011;26160;51.858;4.398;2023-04-03T14:46:17;4.88;;;1.00;;
40453;SDS011;26160;51.858;4.398;2023-04-03T14:48:55;4.05;;;1.15;;
40453;SDS011;26160;51.858;4.398;2023-04-03T14:51:21;5.72;;;0.90;;
40453;SDS011;26160;51.858;4.398;2023-04-03T14:53:47;5.28;;;1.13;;
40453;SDS011;26160;51.858;4.398;2023-04-03T14:56:24;2.30;;;0.90;;
40453;SDS011;26160;51.858;4.398;2023-04-03T14:58:54;2.17;;;1.00;;
40453;SDS011;26160;51.858;4.398;2023-04-03T15:01:22;2.40;;;0.93;;
40453;SDS011;26160;51.858;4.398;2023-04-03T15:03:49;3.17;;;1.20;;
40453;SDS011;26160;51.858;4.398;2023-04-03T15:06:15;2.38;;;0.93;;
40453;SDS011;26160;51.858;4.398;2023-04-03T15:08:42;2.88;;;1.17;;
40453;SDS011;26160;51.858;4.398;2023-04-03T15:11:09;2.40;;;0.80;;
40453;SDS011;26160;51.858;4.398;2023-04-03T15:13:37;3.40;;;0.80;;
40453;SDS011;26160;51.858;4.398;2023-04-03T15:16:04;1.48;;;0.80;;
40453;SDS011;26160;51.858;4.398;2023-04-03T15:18:42;2.22;;;1.08;;
40453;SDS011;26160;51.858;4.398;2023-04-03T15:21:08;4.55;;;1.00;;
40453;SDS011;26160;51.858;4.398;2023-04-03T15:23:35;4.95;;;1.20;;
40453;SDS011;26160;51.858;4.398;2023-04-03T15:26:01;3.13;;;1.40;;
40453;SDS011;26160;51.858;4.398;2023-04-03T15:28:29;3.53;;;1.40;;
40453;SDS011;26160;51.858;4.398;2023-04-03T15:31:03;2.65;;;1.10;;
40453;SDS011;26160;51.858;4.398;2023-04-03T15:33:30;2.13;;;1.05;;
40453;SDS011;26160;51.858;4.398;2023-04-03T15:35:57;2.70;;;1.13;;
40453;SDS011;26160;51.858;4.398;2023-04-03T15:38:23;2.97;;;1.00;;
40453;SDS011;26160;51.858;4.398;2023-04-03T15:40:50;1.27;;;0.80;;
40453;SDS011;26160;51.858;4.398;2023-04-03T15:43:16;1.90;;;0.95;;
40453;SDS011;26160;51.858;4.398;2023-04-03T15:45:43;1.20;;;0.90;;
40453;SDS011;26160;51.858;4.398;2023-04-03T15:48:10;2.28;;;1.20;;
40453;SDS011;26160;51.858;4.398;2023-04-03T15:50:37;2.22;;;1.20;;
40453;SDS011;26160;51.858;4.398;2023-04-03T15:53:03;3.20;;;1.13;;
40453;SDS011;26160;51.858;4.398;2023-04-03T15:55:31;1.52;;;0.80;;
40453;SDS011;26160;51.858;4.398;2023-04-03T15:57:58;4.10;;;1.10;;
40453;SDS011;26160;51.858;4.398;2023-04-03T16:00:25;2.95;;;1.23;;
40453;SDS011;26160;51.858;4.398;2023-04-03T16:02:53;1.55;;;0.95;;
40453;SDS011;26160;51.858;4.398;2023-04-03T16:05:23;3.38;;;1.10;;
40453;SDS011;26160;51.858;4.398;2023-04-03T16:07:49;2.65;;;1.33;;
40453;SDS011;26160;51.858;4.398;2023-04-03T16:10:17;1.98;;;1.13;;
40453;SDS011;26160;51.858;4.398;2023-04-03T16:12:44;4.28;;;1.38;;
40453;SDS011;26160;51.858;4.398;2023-04-03T16:15:10;2.63;;;1.20;;
40453;SDS011;26160;51.858;4.398;2023-04-03T16:17:37;2.50;;;1.15;;
40453;SDS011;26160;51.858;4.398;2023-04-03T16:20:06;3.20;;;1.52;;
40453;SDS011;26160;51.858;4.398;2023-04-03T16:22:34;3.90;;;1.67;;
40453;SDS011;26160;51.858;4.398;2023-04-03T16:25:01;1.85;;;1.20;;
40453;SDS011;26160;51.858;4.398;2023-04-03T16:27:27;3.13;;;1.13;;
40453;SDS011;26160;51.858;4.398;2023-04-03T16:29:55;4.30;;;0.95;;
40453;SDS011;26160;51.858;4.398;2023-04-03T16:32:22;4.35;;;1.52;;
40453;SDS011;26160;51.858;4.398;2023-04-03T16:37:20;2.85;;;1.50;;
40453;SDS011;26160;51.858;4.398;2023-04-03T16:39:46;2.03;;;1.10;;
40453;SDS011;26160;51.858;4.398;2023-04-03T16:42:13;2.17;;;1.03;;
40453;SDS011;26160;51.858;4.398;2023-04-03T16:44:39;4.97;;;1.20;;
40453;SDS011;26160;51.858;4.398;2023-04-03T16:47:06;4.13;;;1.20;;